createdAt,value
2023-02-12T00:02:02.390Z,8.68
2023-02-12T00:04:30.505Z,8.67
2023-02-12T00:06:58.596Z,8.73
2023-02-12T00:09:26.816Z,8.72
2023-02-12T00:11:54.907Z,8.62
2023-02-12T00:14:22.986Z,8.57
2023-02-12T00:16:52.437Z,8.66
2023-02-12T00:19:20.523Z,8.66
2023-02-12T00:21:48.630Z,8.76
2023-02-12T00:24:16.706Z,8.67
2023-02-12T00:26:45.142Z,8.62
2023-02-12T00:29:13.218Z,8.71
2023-02-12T00:31:41.395Z,8.68
2023-02-12T00:34:12.378Z,8.72
2023-02-12T00:36:42.378Z,8.71
2023-02-12T00:39:11.671Z,8.71
2023-02-12T00:41:39.729Z,8.76
2023-02-12T00:44:07.815Z,8.71
2023-02-12T00:46:36.291Z,8.70
2023-02-12T00:49:04.489Z,8.75
2023-02-12T00:51:33.906Z,8.80
2023-02-12T00:54:02.022Z,8.78
2023-02-12T00:56:30.072Z,8.79
2023-02-12T00:58:58.158Z,8.76
2023-02-12T01:01:26.871Z,8.76
2023-02-12T01:03:54.970Z,8.70
2023-02-12T01:06:23.086Z,8.74
2023-02-12T01:08:53.795Z,8.68
2023-02-12T01:11:22.305Z,8.71
2023-02-12T01:13:50.374Z,8.63
2023-02-12T01:16:22.443Z,8.58
2023-02-12T01:18:55.521Z,8.49
2023-02-12T01:21:27.339Z,8.53
2023-02-12T01:23:58.300Z,8.59
2023-02-12T01:26:27.058Z,8.57
2023-02-12T01:28:57.961Z,8.63
2023-02-12T01:31:29.828Z,8.66
2023-02-12T01:34:00.851Z,8.72
2023-02-12T01:36:31.258Z,8.70
2023-02-12T01:39:02.969Z,8.62
2023-02-12T01:41:34.533Z,8.65
2023-02-12T01:44:13.856Z,8.66
2023-02-12T01:46:43.028Z,8.66
2023-02-12T01:49:17.288Z,8.59
2023-02-12T01:51:47.410Z,8.59
2023-02-12T01:54:20.419Z,8.58
2023-02-12T01:56:49.699Z,8.56
2023-02-12T01:59:19.993Z,8.60
2023-02-12T02:01:48.372Z,8.60
2023-02-12T02:04:23.462Z,8.61
2023-02-12T02:06:57.804Z,8.58
2023-02-12T02:09:29.347Z,8.56
2023-02-12T02:12:15.615Z,8.54
2023-02-12T02:14:45.522Z,8.60
2023-02-12T02:17:38.771Z,8.56
2023-02-12T02:20:59.961Z,8.55
2023-02-12T02:23:53.150Z,8.55
2023-02-12T02:27:06.342Z,8.63
2023-02-12T02:30:01.011Z,8.57
2023-02-12T02:32:33.401Z,8.52
2023-02-12T02:35:09.506Z,8.59
2023-02-12T02:37:44.954Z,8.56
2023-02-12T02:40:19.190Z,8.59
2023-02-12T02:42:55.146Z,8.52
2023-02-12T02:45:31.561Z,8.57
2023-02-12T02:48:05.809Z,8.59
2023-02-12T02:51:28.149Z,8.56
2023-02-12T02:57:52.282Z,8.51
2023-02-12T03:00:30.405Z,8.52
2023-02-12T03:03:08.933Z,8.54
2023-02-12T03:05:44.661Z,8.54
2023-02-12T03:08:20.222Z,8.57
2023-02-12T03:10:55.107Z,8.56
2023-02-12T03:13:28.973Z,8.56
2023-02-12T03:16:03.960Z,8.55
2023-02-12T03:18:37.338Z,8.61
2023-02-12T03:21:12.405Z,8.54
2023-02-12T03:23:48.767Z,8.51
2023-02-12T03:26:22.537Z,8.50
2023-02-12T03:28:55.150Z,8.57
2023-02-12T03:31:37.233Z,8.56
2023-02-12T03:34:16.113Z,8.58
2023-02-12T03:36:52.505Z,8.57
2023-02-12T03:39:31.637Z,8.59
2023-02-12T03:42:06.580Z,8.53
2023-02-12T03:44:53.766Z,8.53
2023-02-12T03:47:28.934Z,8.50
2023-02-12T03:50:11.972Z,8.46
2023-02-12T03:52:40.332Z,8.49
2023-02-12T03:55:09.334Z,8.56
2023-02-12T03:57:44.009Z,8.62
2023-02-12T04:00:17.503Z,8.56
2023-02-12T04:02:48.948Z,8.47
2023-02-12T04:05:24.890Z,8.48
2023-02-12T04:07:54.949Z,8.51
2023-02-12T04:10:30.933Z,8.52
2023-02-12T04:13:12.179Z,8.59
2023-02-12T04:15:58.331Z,8.53
2023-02-12T04:18:35.106Z,8.62
2023-02-12T04:21:15.482Z,8.54
2023-02-12T04:23:51.325Z,8.54
2023-02-12T04:26:27.832Z,8.59
2023-02-12T04:29:10.849Z,8.82
2023-02-12T04:31:46.614Z,9.09
2023-02-12T04:34:23.295Z,9.31
2023-02-12T04:37:00.144Z,9.51
2023-02-12T04:39:32.624Z,9.61
2023-02-12T04:42:01.587Z,9.72
2023-02-12T04:44:32.745Z,9.82
2023-02-12T04:47:01.456Z,9.85
2023-02-12T04:49:29.777Z,9.74
2023-02-12T04:51:59.667Z,9.58
2023-02-12T04:54:27.866Z,9.43
2023-02-12T04:56:56.009Z,9.28
2023-02-12T04:59:24.213Z,9.18
2023-02-12T05:01:52.428Z,9.08
2023-02-12T05:04:21.097Z,9.04
2023-02-12T05:06:49.190Z,8.98
2023-02-12T05:09:21.569Z,8.87
2023-02-12T05:11:50.014Z,8.82
2023-02-12T05:14:18.080Z,8.78
2023-02-12T05:16:46.217Z,8.81
2023-02-12T05:19:14.292Z,8.81
2023-02-12T05:21:43.502Z,8.78
2023-02-12T05:24:11.776Z,8.72
2023-02-12T05:26:41.214Z,8.69
2023-02-12T05:29:09.372Z,8.67
2023-02-12T05:31:37.592Z,8.66
2023-02-12T05:34:07.867Z,8.68
2023-02-12T05:36:35.947Z,8.69
2023-02-12T05:39:04.488Z,8.65
2023-02-12T05:41:35.246Z,8.59
2023-02-12T05:44:07.029Z,8.65
2023-02-12T05:46:35.219Z,8.56
2023-02-12T05:49:03.360Z,8.58
2023-02-12T05:51:32.174Z,8.62
2023-02-12T05:54:03.816Z,8.61
2023-02-12T05:56:34.142Z,8.58
2023-02-12T05:59:07.091Z,8.63
2023-02-12T06:01:37.942Z,8.63
2023-02-12T06:04:09.664Z,8.61
2023-02-12T06:06:37.823Z,8.58
2023-02-12T06:09:05.937Z,8.61
2023-02-12T06:11:34.122Z,8.62
2023-02-12T06:14:05.377Z,8.64
2023-02-12T06:16:35.145Z,8.69
2023-02-12T06:19:06.076Z,8.65
2023-02-12T06:21:35.202Z,8.72
2023-02-12T06:24:03.556Z,8.74
2023-02-12T06:26:31.992Z,8.76
2023-02-12T06:29:00.070Z,8.71
2023-02-12T06:31:33.277Z,8.72
2023-02-12T06:34:04.134Z,8.74
2023-02-12T06:36:32.328Z,8.73
2023-02-12T06:39:02.589Z,8.91
2023-02-12T06:41:30.904Z,9.25
2023-02-12T06:43:59.617Z,9.57
2023-02-12T06:46:29.244Z,9.87
2023-02-12T06:48:59.836Z,10.08
2023-02-12T06:51:31.341Z,10.25
2023-02-12T06:53:59.927Z,10.38
2023-02-12T06:56:28.574Z,10.50
2023-02-12T06:58:59.536Z,10.63
2023-02-12T07:01:31.585Z,10.65
2023-02-12T07:04:03.245Z,10.68
2023-02-12T07:06:34.627Z,10.71
2023-02-12T07:09:03.559Z,10.74
2023-02-12T07:11:37.624Z,10.77
2023-02-12T07:14:06.908Z,10.75
2023-02-12T07:16:36.472Z,10.78
2023-02-12T07:19:04.660Z,10.79
2023-02-12T07:21:32.887Z,10.79
2023-02-12T07:24:01.124Z,10.65
2023-02-12T07:26:29.356Z,10.55
2023-02-12T07:28:59.397Z,10.46
2023-02-12T07:31:27.733Z,10.52
2023-02-12T07:33:58.950Z,10.52
2023-02-12T07:36:28.875Z,10.61
2023-02-12T07:38:58.288Z,10.71
2023-02-12T07:41:29.316Z,10.69
2023-02-12T07:43:59.936Z,10.55
2023-02-12T07:46:30.815Z,10.38
2023-02-12T07:49:04.273Z,10.13
2023-02-12T07:51:34.020Z,9.97
2023-02-12T07:54:02.476Z,9.87
2023-02-12T07:56:35.233Z,9.78
2023-02-12T07:59:05.788Z,9.70
2023-02-12T08:01:36.078Z,9.64
2023-02-12T08:04:09.470Z,9.60
2023-02-12T08:06:40.147Z,9.55
2023-02-12T08:09:11.164Z,9.56
2023-02-12T08:11:42.784Z,9.50
2023-02-12T08:14:13.798Z,9.46
2023-02-12T08:16:44.371Z,9.45
2023-02-12T08:19:19.778Z,9.47
2023-02-12T08:21:51.683Z,9.47
2023-02-12T08:24:21.949Z,9.46
2023-02-12T08:26:50.482Z,9.47
2023-02-12T08:29:21.985Z,9.46
2023-02-12T08:31:55.748Z,9.52
2023-02-12T08:34:27.282Z,9.53
2023-02-12T08:36:57.297Z,9.54
2023-02-12T08:39:28.236Z,9.59
2023-02-12T08:41:57.696Z,9.62
2023-02-12T08:44:26.153Z,9.59
2023-02-12T08:46:55.624Z,9.58
2023-02-12T08:49:27.644Z,9.57
2023-02-12T08:51:58.478Z,9.53
2023-02-12T08:54:29.065Z,9.47
2023-02-12T08:56:59.097Z,9.39
2023-02-12T08:59:27.522Z,9.37
2023-02-12T09:01:55.970Z,9.40
2023-02-12T09:04:29.487Z,9.43
2023-02-12T09:06:58.571Z,9.40
2023-02-12T09:09:27.370Z,9.43
2023-02-12T09:11:55.471Z,9.58
2023-02-12T09:14:24.811Z,9.73
2023-02-12T09:16:54.480Z,9.85
2023-02-12T09:19:22.797Z,9.76
2023-02-12T09:21:56.315Z,9.66
2023-02-12T09:24:27.442Z,9.61
2023-02-12T09:26:55.777Z,9.67
2023-02-12T09:29:25.025Z,9.68
2023-02-12T09:31:53.277Z,9.70
2023-02-12T09:34:22.593Z,9.73
2023-02-12T09:36:50.710Z,9.81
2023-02-12T09:39:20.267Z,9.83
2023-02-12T09:42:08.031Z,9.70
2023-02-12T09:44:44.286Z,9.72
2023-02-12T09:47:18.341Z,9.64
2023-02-12T09:50:04.297Z,9.66
2023-02-12T09:52:32.601Z,9.63
2023-02-12T09:55:02.649Z,9.66
2023-02-12T09:57:35.738Z,9.67
2023-02-12T10:00:08.842Z,9.67
2023-02-12T10:02:38.693Z,9.74
2023-02-12T10:05:15.623Z,9.71
2023-02-12T10:08:04.288Z,9.81
2023-02-12T10:10:49.554Z,9.89
2023-02-12T10:13:30.269Z,9.94
2023-02-12T10:16:08.138Z,9.93
2023-02-12T10:19:07.195Z,9.94
2023-02-12T10:21:48.786Z,10.05
2023-02-12T10:24:50.006Z,10.15
2023-02-12T10:27:41.070Z,10.25
2023-02-12T10:30:20.763Z,10.33
2023-02-12T10:32:55.816Z,10.41
2023-02-12T10:35:24.828Z,10.52
2023-02-12T10:37:59.651Z,10.55
2023-02-12T10:40:32.836Z,10.61
2023-02-12T10:43:03.635Z,10.62
2023-02-12T10:45:34.998Z,10.67
2023-02-12T10:48:10.167Z,10.76
2023-02-12T10:50:58.516Z,10.66
2023-02-12T10:53:32.811Z,10.62
2023-02-12T10:56:17.309Z,10.64
2023-02-12T10:58:59.447Z,10.64
2023-02-12T11:01:30.453Z,10.62
2023-02-12T11:04:01.110Z,10.63
2023-02-12T11:06:32.978Z,10.72
2023-02-12T11:09:01.159Z,10.61
2023-02-12T11:11:31.712Z,10.57
2023-02-12T11:14:05.481Z,10.55
2023-02-12T11:16:37.722Z,10.45
2023-02-12T11:19:09.337Z,10.51
2023-02-12T11:21:37.671Z,10.49
2023-02-12T11:24:31.932Z,10.44
2023-02-12T11:27:24.912Z,10.37
2023-02-12T11:30:21.948Z,10.43
2023-02-12T11:32:51.673Z,10.50
2023-02-12T11:35:25.844Z,10.51
2023-02-12T11:37:57.765Z,10.47
2023-02-12T11:40:29.522Z,10.67
2023-02-12T11:43:07.038Z,10.78
2023-02-12T11:45:46.354Z,10.90
2023-02-12T11:48:20.928Z,11.08
2023-02-12T11:50:54.017Z,11.20
2023-02-12T11:53:26.723Z,11.37
2023-02-12T11:55:59.796Z,11.53
2023-02-12T11:58:34.007Z,11.66
2023-02-12T12:01:26.537Z,11.70
2023-02-12T12:04:01.757Z,11.57
2023-02-12T12:06:38.889Z,11.60
2023-02-12T12:09:17.049Z,11.57
2023-02-12T12:11:57.200Z,11.70
2023-02-12T12:14:31.559Z,11.72
2023-02-12T12:17:25.731Z,11.61
2023-02-12T12:20:00.568Z,11.55
2023-02-12T12:22:48.788Z,11.39
2023-02-12T12:25:27.310Z,11.36
2023-02-12T12:28:13.356Z,11.22
2023-02-12T12:31:04.273Z,11.22
2023-02-12T12:33:45.101Z,11.14
2023-02-12T12:36:52.793Z,10.95
2023-02-12T12:39:29.961Z,11.04
2023-02-12T12:42:48.170Z,10.95
2023-02-12T12:45:32.603Z,11.11
2023-02-12T12:48:18.952Z,11.00
2023-02-12T12:51:09.272Z,10.96
2023-02-12T12:53:55.771Z,10.91
2023-02-12T12:56:59.611Z,11.04
2023-02-12T13:00:04.026Z,10.96
2023-02-12T13:03:21.479Z,10.91
2023-02-12T13:06:26.136Z,10.93
2023-02-12T13:09:25.822Z,11.01
2023-02-12T13:12:23.752Z,11.09
2023-02-12T13:15:09.096Z,11.09
2023-02-12T13:17:46.138Z,11.15
2023-02-12T13:20:24.068Z,11.10
2023-02-12T13:23:00.669Z,11.17
2023-02-12T13:25:36.628Z,11.19
2023-02-12T13:28:07.005Z,11.27
2023-02-12T13:30:44.316Z,11.17
2023-02-12T13:33:21.535Z,11.16
2023-02-12T13:35:54.822Z,11.17
2023-02-12T13:38:32.079Z,11.18
2023-02-12T13:41:04.706Z,11.24
2023-02-12T13:43:46.857Z,11.36
2023-02-12T13:46:25.364Z,11.33
2023-02-12T13:49:06.482Z,11.33
2023-02-12T13:51:45.973Z,11.32
2023-02-12T13:54:50.184Z,11.27
2023-02-12T13:57:21.074Z,11.32
2023-02-12T13:59:53.698Z,11.39
2023-02-12T14:02:50.412Z,11.47
2023-02-12T14:05:31.986Z,11.44
2023-02-12T14:08:05.439Z,11.33
2023-02-12T14:10:38.952Z,11.41
2023-02-12T14:13:20.505Z,11.48
2023-02-12T14:15:52.329Z,11.65
2023-02-12T14:18:31.662Z,11.64
2023-02-12T14:21:45.528Z,11.67
2023-02-12T14:24:53.605Z,11.61
2023-02-12T14:27:36.262Z,11.61
2023-02-12T14:30:27.613Z,11.51
2023-02-12T14:33:11.626Z,11.58
2023-02-12T14:35:41.541Z,11.58
2023-02-12T14:39:02.432Z,11.66
2023-02-12T14:41:44.395Z,11.73
2023-02-12T14:44:49.027Z,11.77
2023-02-12T14:47:56.040Z,11.77
2023-02-12T14:50:31.498Z,11.75
2023-02-12T14:53:24.583Z,11.75
2023-02-12T14:55:53.162Z,11.63
2023-02-12T14:58:25.421Z,11.68
2023-02-12T15:00:57.462Z,11.78
2023-02-12T15:03:35.705Z,11.81
2023-02-12T15:06:11.143Z,11.79
2023-02-12T15:08:46.854Z,11.81
2023-02-12T15:11:25.647Z,11.80
2023-02-12T15:14:00.983Z,11.73
2023-02-12T15:16:43.049Z,11.66
2023-02-12T15:19:32.481Z,11.55
2023-02-12T15:22:01.122Z,11.60
2023-02-12T15:24:29.541Z,11.64
2023-02-12T15:27:01.048Z,11.63
2023-02-12T15:29:33.110Z,11.65
2023-02-12T15:32:07.460Z,11.64
2023-02-12T15:34:39.000Z,11.66
2023-02-12T15:37:09.419Z,11.69
2023-02-12T15:39:44.411Z,11.71
2023-02-12T15:42:32.215Z,11.65
2023-02-12T15:45:22.117Z,11.67
2023-02-12T15:48:08.348Z,11.60
2023-02-12T15:50:38.154Z,11.54
2023-02-12T15:53:06.333Z,11.50
2023-02-12T15:55:40.850Z,11.53
2023-02-12T15:58:24.477Z,11.52
2023-02-12T16:00:54.068Z,11.42
2023-02-12T16:03:26.746Z,11.44
2023-02-12T16:06:00.168Z,11.44
2023-02-12T16:08:30.137Z,11.34
2023-02-12T16:10:59.700Z,11.40
2023-02-12T16:13:34.275Z,11.27
2023-02-12T16:16:09.505Z,11.19
2023-02-12T16:18:40.248Z,11.17
2023-02-12T16:21:15.911Z,11.04
2023-02-12T16:23:45.101Z,11.06
2023-02-12T16:26:19.696Z,11.13
2023-02-12T16:28:49.611Z,11.04
2023-02-12T16:31:19.303Z,10.95
2023-02-12T16:33:53.267Z,10.91
2023-02-12T16:36:32.204Z,10.92
2023-02-12T16:39:03.249Z,10.95
2023-02-12T16:41:33.746Z,10.89
2023-02-12T16:44:31.630Z,10.86
2023-02-12T16:47:02.765Z,10.71
2023-02-12T16:49:32.467Z,10.83
2023-02-12T16:52:22.818Z,10.86
2023-02-12T16:54:50.985Z,10.81
2023-02-12T16:57:19.115Z,10.82
2023-02-12T16:59:47.210Z,10.79
2023-02-12T17:02:16.657Z,10.69
2023-02-12T17:04:46.446Z,10.77
2023-02-12T17:07:21.682Z,10.77
2023-02-12T17:09:49.925Z,10.66
2023-02-12T17:12:18.421Z,10.64
2023-02-12T17:14:47.260Z,10.56
2023-02-12T17:17:15.393Z,10.55
2023-02-12T17:19:43.608Z,10.46
2023-02-12T17:22:21.982Z,10.45
2023-02-12T17:24:51.672Z,10.44
2023-02-12T17:27:19.966Z,10.56
2023-02-12T17:29:48.229Z,10.61
2023-02-12T17:32:16.443Z,10.59
2023-02-12T17:34:48.936Z,10.56
2023-02-12T17:37:19.080Z,10.52
2023-02-12T17:39:47.579Z,10.45
2023-02-12T17:42:15.813Z,10.34
2023-02-12T17:44:44.026Z,10.18
2023-02-12T17:47:12.354Z,10.10
2023-02-12T17:49:40.766Z,10.07
2023-02-12T17:52:08.885Z,10.07
2023-02-12T17:54:39.258Z,10.09
2023-02-12T17:57:07.347Z,10.05
2023-02-12T17:59:35.508Z,10.02
2023-02-12T18:02:03.769Z,9.92
2023-02-12T18:04:33.962Z,9.91
2023-02-12T18:07:02.277Z,9.85
2023-02-12T18:09:31.920Z,9.80
2023-02-12T18:12:01.475Z,9.83
2023-02-12T18:14:29.615Z,9.70
2023-02-12T18:16:57.790Z,9.51
2023-02-12T18:19:26.890Z,9.54
2023-02-12T18:21:55.120Z,9.43
2023-02-12T18:24:23.272Z,9.30
2023-02-12T18:26:53.305Z,9.24
2023-02-12T18:29:22.697Z,9.14
2023-02-12T18:31:51.340Z,9.08
2023-02-12T18:34:19.943Z,8.93
2023-02-12T18:36:48.153Z,8.94
2023-02-12T18:39:16.353Z,8.92
2023-02-12T18:41:44.435Z,8.91
2023-02-12T18:44:13.413Z,8.87
2023-02-12T18:46:43.152Z,8.84
2023-02-12T18:49:12.437Z,8.93
2023-02-12T18:51:41.089Z,8.94
2023-02-12T18:54:12.802Z,8.95
2023-02-12T18:56:43.868Z,8.94
2023-02-12T18:59:15.483Z,8.96
2023-02-12T19:01:47.164Z,8.93
2023-02-12T19:04:20.447Z,8.89
2023-02-12T19:06:50.801Z,8.86
2023-02-12T19:09:21.850Z,8.81
2023-02-12T19:11:52.828Z,8.78
2023-02-12T19:14:22.876Z,8.72
2023-02-12T19:16:53.467Z,8.74
2023-02-12T19:19:22.455Z,8.65
2023-02-12T19:21:51.339Z,8.53
2023-02-12T19:24:20.341Z,8.42
2023-02-12T19:26:52.689Z,8.54
2023-02-12T19:29:20.856Z,8.76
2023-02-12T19:31:49.381Z,9.11
2023-02-12T19:34:23.335Z,9.49
2023-02-12T19:36:51.695Z,9.47
2023-02-12T19:39:23.211Z,9.24
2023-02-12T19:41:51.920Z,9.16
2023-02-12T19:44:23.655Z,9.10
2023-02-12T19:46:52.658Z,8.68
2023-02-12T19:49:24.604Z,8.76
2023-02-12T19:51:52.804Z,8.71
2023-02-12T19:54:22.866Z,8.54
2023-02-12T19:56:51.798Z,8.53
2023-02-12T19:59:24.750Z,8.52
2023-02-12T20:01:53.528Z,8.40
2023-02-12T20:04:24.496Z,8.23
2023-02-12T20:06:53.243Z,7.94
2023-02-12T20:09:23.587Z,7.86
2023-02-12T20:11:52.196Z,8.07
2023-02-12T20:14:22.569Z,8.19
2023-02-12T20:16:52.218Z,8.18
2023-02-12T20:19:24.337Z,8.17
2023-02-12T20:21:55.389Z,8.17
2023-02-12T20:24:24.317Z,8.13
2023-02-12T20:26:52.869Z,8.11
2023-02-12T20:29:21.598Z,7.95
2023-02-12T20:31:50.098Z,7.99
2023-02-12T20:34:20.927Z,7.87
2023-02-12T20:36:50.759Z,7.61
2023-02-12T20:39:21.618Z,7.39
2023-02-12T20:41:50.215Z,7.50
2023-02-12T20:44:22.236Z,7.43
2023-02-12T20:46:56.427Z,7.37
2023-02-12T20:49:26.192Z,7.41
2023-02-12T20:51:56.270Z,7.58
2023-02-12T20:54:25.840Z,7.61
2023-02-12T20:56:53.955Z,7.63
2023-02-12T20:59:22.014Z,7.65
2023-02-12T21:01:50.302Z,7.68
2023-02-12T21:04:20.440Z,7.58
2023-02-12T21:06:49.725Z,7.58
2023-02-12T21:09:19.875Z,7.53
2023-02-12T21:11:48.899Z,7.44
2023-02-12T21:14:23.705Z,7.44
2023-02-12T21:16:53.459Z,7.46
2023-02-12T21:19:22.235Z,7.44
2023-02-12T21:21:54.005Z,7.37
2023-02-12T21:24:25.856Z,7.38
2023-02-12T21:26:56.171Z,7.32
2023-02-12T21:29:26.534Z,7.32
2023-02-12T21:31:55.127Z,7.21
2023-02-12T21:34:24.669Z,7.10
2023-02-12T21:36:55.355Z,7.08
2023-02-12T21:39:28.832Z,7.10
2023-02-12T21:42:00.007Z,6.95
2023-02-12T21:44:29.131Z,6.77
2023-02-12T21:46:58.658Z,6.74
2023-02-12T21:49:27.770Z,6.73
2023-02-12T21:51:59.239Z,6.77
2023-02-12T21:54:29.542Z,6.76
2023-02-12T21:56:58.241Z,6.74
2023-02-12T21:59:26.922Z,6.67
2023-02-12T22:01:58.337Z,6.48
2023-02-12T22:04:27.170Z,6.47
2023-02-12T22:06:56.547Z,6.56
2023-02-12T22:09:25.439Z,6.73
2023-02-12T22:11:54.986Z,6.73
2023-02-12T22:14:23.649Z,6.76
2023-02-12T22:16:52.483Z,6.82
2023-02-12T22:19:21.046Z,6.81
2023-02-12T22:21:52.485Z,6.78
2023-02-12T22:24:21.358Z,6.77
2023-02-12T22:26:49.629Z,6.70
2023-02-12T22:29:19.243Z,6.58
2023-02-12T22:31:48.300Z,6.52
2023-02-12T22:34:19.315Z,6.46
2023-02-12T22:36:48.460Z,6.49
2023-02-12T22:39:17.630Z,6.41
2023-02-12T22:41:46.114Z,6.28
2023-02-12T22:44:15.458Z,6.23
2023-02-12T22:46:45.771Z,6.20
2023-02-12T22:49:13.918Z,6.27
2023-02-12T22:51:42.150Z,6.21
2023-02-12T22:54:15.098Z,6.33
2023-02-12T22:56:44.207Z,6.43
2023-02-12T22:59:14.790Z,6.40
2023-02-12T23:01:44.712Z,6.48
2023-02-12T23:04:17.196Z,6.38
2023-02-12T23:06:45.955Z,6.36
2023-02-12T23:09:19.038Z,6.33
2023-02-12T23:11:48.021Z,6.28
2023-02-12T23:14:16.139Z,6.24
2023-02-12T23:16:46.456Z,6.15
2023-02-12T23:19:16.156Z,6.15
2023-02-12T23:21:44.489Z,6.15
2023-02-12T23:24:15.190Z,6.12
2023-02-12T23:26:43.540Z,6.09
2023-02-12T23:29:11.602Z,6.11
2023-02-12T23:31:39.728Z,6.05
2023-02-12T23:34:09.202Z,5.99
2023-02-12T23:36:37.250Z,5.92
2023-02-12T23:39:09.442Z,5.94
2023-02-12T23:41:37.574Z,5.91
2023-02-12T23:44:06.006Z,5.86
2023-02-12T23:46:34.127Z,5.89
2023-02-12T23:49:02.613Z,5.92
2023-02-12T23:51:32.527Z,5.96
2023-02-12T23:54:01.068Z,5.91
2023-02-12T23:56:31.799Z,5.89
2023-02-12T23:58:59.798Z,5.87
